createdAt,value
2023-10-31T00:00:15.822Z,35.06
2023-10-31T00:01:21.490Z,31.33
2023-10-31T00:02:26.769Z,30.81
2023-10-31T00:03:32.461Z,27.67
2023-10-31T00:04:34.293Z,28.44
2023-10-31T00:05:37.283Z,28.44
2023-10-31T00:06:40.214Z,26.69
2023-10-31T00:07:44.308Z,24.56
2023-10-31T00:08:48.628Z,23.47
2023-10-31T00:09:51.481Z,25.87
2023-10-31T00:10:56.420Z,27.56
2023-10-31T00:11:59.338Z,27.13
2023-10-31T00:13:02.174Z,27.62
2023-10-31T00:14:06.490Z,30.73
2023-10-31T00:15:09.554Z,32.67
2023-10-31T00:16:12.571Z,38.81
2023-10-31T00:17:18.363Z,34.07
2023-10-31T00:18:22.838Z,33.67
2023-10-31T00:19:26.919Z,32.75
2023-10-31T00:20:29.855Z,31.19
2023-10-31T00:21:32.657Z,30.88
2023-10-31T00:22:35.602Z,29.63
2023-10-31T00:23:45.737Z,27.75
2023-10-31T00:24:48.567Z,27.94
2023-10-31T00:25:52.638Z,28.19
2023-10-31T00:26:55.580Z,28.31
2023-10-31T00:27:58.402Z,29.69
2023-10-31T00:29:04.319Z,30.31
2023-10-31T00:30:09.086Z,31.12
2023-10-31T00:31:13.699Z,31.06
2023-10-31T00:32:16.641Z,29.53
2023-10-31T00:33:19.590Z,28.94
2023-10-31T00:34:24.171Z,29.63
2023-10-31T00:35:26.976Z,29.94
2023-10-31T00:36:29.893Z,28.00
2023-10-31T00:37:32.712Z,27.75
2023-10-31T00:38:35.629Z,28.69
2023-10-31T00:39:39.786Z,27.81
2023-10-31T00:40:42.707Z,29.56
2023-10-31T00:41:45.831Z,28.44
2023-10-31T00:42:48.643Z,28.44
2023-10-31T00:43:51.482Z,30.81
2023-10-31T00:44:55.978Z,34.31
2023-10-31T00:45:58.833Z,36.13
2023-10-31T00:47:01.842Z,35.93
2023-10-31T00:48:04.815Z,38.87
2023-10-31T00:49:07.699Z,38.87
2023-10-31T00:50:10.769Z,34.33
2023-10-31T00:51:13.637Z,30.31
2023-10-31T00:52:16.445Z,26.40
2023-10-31T00:53:19.313Z,28.19
2023-10-31T00:54:22.136Z,28.50
2023-10-31T00:55:24.991Z,28.81
2023-10-31T00:56:27.945Z,27.81
2023-10-31T00:57:30.778Z,26.06
2023-10-31T00:58:33.618Z,26.25
2023-10-31T00:59:38.228Z,24.06
2023-10-31T01:00:41.107Z,23.19
2023-10-31T01:01:44.473Z,24.87
2023-10-31T01:02:47.407Z,22.67
2023-10-31T01:03:50.323Z,23.75
2023-10-31T01:04:53.147Z,23.20
2023-10-31T01:05:57.451Z,24.33
2023-10-31T01:07:01.945Z,18.94
2023-10-31T01:08:07.919Z,18.37
2023-10-31T01:09:11.324Z,19.19
2023-10-31T01:10:19.425Z,18.00
2023-10-31T01:11:18.993Z,18.81
2023-10-31T01:12:21.881Z,3.31
2023-10-31T01:13:24.698Z,19.69
2023-10-31T01:14:27.496Z,19.00
2023-10-31T01:15:30.303Z,18.56
2023-10-31T01:16:33.288Z,18.81
2023-10-31T01:17:36.148Z,19.69
2023-10-31T01:18:41.655Z,19.75
2023-10-31T01:19:44.496Z,17.81
2023-10-31T01:20:47.442Z,19.50
2023-10-31T01:21:50.333Z,19.00
2023-10-31T01:22:53.231Z,19.12
2023-10-31T01:23:56.071Z,20.25
2023-10-31T01:25:00.339Z,18.25
2023-10-31T01:26:05.264Z,18.81
2023-10-31T01:27:07.677Z,19.37
2023-10-31T01:28:10.532Z,18.00
2023-10-31T01:29:13.377Z,19.44
2023-10-31T01:30:17.013Z,20.40
2023-10-31T01:31:19.846Z,20.75
2023-10-31T01:32:23.094Z,17.75
2023-10-31T01:33:26.201Z,18.00
2023-10-31T01:34:29.090Z,18.31
2023-10-31T01:35:31.911Z,16.81
2023-10-31T01:36:34.871Z,13.88
2023-10-31T01:37:37.720Z,17.31
2023-10-31T01:38:40.564Z,16.94
2023-10-31T01:39:43.412Z,19.25
2023-10-31T01:40:47.763Z,19.37
2023-10-31T01:41:53.435Z,19.37
2023-10-31T01:42:57.984Z,19.00
2023-10-31T01:44:00.895Z,18.37
2023-10-31T01:45:08.844Z,20.12
2023-10-31T01:46:12.996Z,16.12
2023-10-31T01:47:15.854Z,18.50
2023-10-31T01:48:18.962Z,16.37
2023-10-31T01:49:21.934Z,18.69
2023-10-31T01:50:25.366Z,16.69
2023-10-31T01:51:31.079Z,19.06
2023-10-31T01:52:34.064Z,19.50
2023-10-31T01:53:37.964Z,19.31
2023-10-31T01:54:40.928Z,15.88
2023-10-31T01:55:44.432Z,19.25
2023-10-31T01:56:48.795Z,16.69
2023-10-31T01:57:51.620Z,19.00
2023-10-31T01:58:54.549Z,17.69
2023-10-31T01:59:57.589Z,18.25
2023-10-31T02:01:01.065Z,16.37
2023-10-31T02:02:06.377Z,12.69
2023-10-31T02:03:09.375Z,18.00
2023-10-31T02:04:14.929Z,16.20
2023-10-31T02:05:16.940Z,19.69
2023-10-31T02:06:19.854Z,19.87
2023-10-31T02:07:22.641Z,18.62
2023-10-31T02:08:27.000Z,18.50
2023-10-31T02:09:29.871Z,18.31
2023-10-31T02:10:32.745Z,14.87
2023-10-31T02:11:35.626Z,18.69
2023-10-31T02:12:38.849Z,17.44
2023-10-31T02:13:43.444Z,18.12
2023-10-31T02:14:46.288Z,15.40
2023-10-31T02:15:49.304Z,20.37
2023-10-31T02:16:52.668Z,17.56
2023-10-31T02:17:55.691Z,19.25
2023-10-31T02:18:58.552Z,18.87
2023-10-31T02:20:01.523Z,15.13
2023-10-31T02:21:04.651Z,19.12
2023-10-31T02:22:07.431Z,16.19
2023-10-31T02:23:10.401Z,15.13
2023-10-31T02:24:13.288Z,18.44
2023-10-31T02:25:19.348Z,20.25
2023-10-31T02:26:22.325Z,16.73
2023-10-31T02:27:25.099Z,19.62
2023-10-31T02:28:27.921Z,19.00
2023-10-31T02:29:32.427Z,17.19
2023-10-31T02:30:35.761Z,18.69
2023-10-31T02:31:38.668Z,19.25
2023-10-31T02:32:42.054Z,15.38
2023-10-31T02:33:44.935Z,17.50
2023-10-31T02:34:50.743Z,19.19
2023-10-31T02:35:53.560Z,16.62
2023-10-31T02:36:56.411Z,17.87
2023-10-31T02:37:59.253Z,17.81
2023-10-31T02:39:02.219Z,17.19
2023-10-31T02:40:05.411Z,19.37
2023-10-31T02:41:09.723Z,18.31
2023-10-31T02:42:12.517Z,20.06
2023-10-31T02:43:15.325Z,19.69
2023-10-31T02:44:18.127Z,17.94
2023-10-31T02:45:20.996Z,18.44
2023-10-31T02:46:23.916Z,18.25
2023-10-31T02:47:26.791Z,19.44
2023-10-31T02:48:29.809Z,19.00
2023-10-31T02:49:33.865Z,17.75
2023-10-31T02:50:36.785Z,18.69
2023-10-31T02:51:39.581Z,18.06
2023-10-31T02:52:42.524Z,15.88
2023-10-31T02:53:45.416Z,18.19
2023-10-31T02:54:48.215Z,19.75
2023-10-31T02:55:51.040Z,17.25
2023-10-31T02:56:53.880Z,18.31
2023-10-31T02:57:56.709Z,17.19
2023-10-31T02:58:59.625Z,16.81
2023-10-31T03:00:02.569Z,18.56
2023-10-31T03:01:05.383Z,19.94
2023-10-31T03:02:08.334Z,16.75
2023-10-31T03:03:11.228Z,17.81
2023-10-31T03:04:14.093Z,19.00
2023-10-31T03:05:16.951Z,16.44
2023-10-31T03:06:19.871Z,20.00
2023-10-31T03:07:22.677Z,19.31
2023-10-31T03:08:26.980Z,19.62
2023-10-31T03:09:29.967Z,18.50
2023-10-31T03:10:32.832Z,18.62
2023-10-31T03:11:35.720Z,20.50
2023-10-31T03:12:38.542Z,19.06
2023-10-31T03:13:41.368Z,17.60
2023-10-31T03:14:44.307Z,19.37
2023-10-31T03:15:47.545Z,20.37
2023-10-31T03:16:52.215Z,18.87
2023-10-31T03:17:56.572Z,22.31
2023-10-31T03:18:59.695Z,19.50
2023-10-31T03:20:02.622Z,22.40
2023-10-31T03:21:05.494Z,21.50
2023-10-31T03:22:08.368Z,23.44
2023-10-31T03:23:11.269Z,22.50
2023-10-31T03:24:14.150Z,21.44
2023-10-31T03:25:17.028Z,22.50
2023-10-31T03:26:20.209Z,22.87
2023-10-31T03:27:23.021Z,21.25
2023-10-31T03:28:25.902Z,22.56
2023-10-31T03:29:28.782Z,21.81
2023-10-31T03:30:31.744Z,19.37
2023-10-31T03:31:36.304Z,22.19
2023-10-31T03:32:39.218Z,21.50
2023-10-31T03:33:42.605Z,22.13
2023-10-31T03:34:45.470Z,19.62
2023-10-31T03:35:48.371Z,22.19
2023-10-31T03:36:51.520Z,20.12
2023-10-31T03:37:54.391Z,19.75
2023-10-31T03:38:58.442Z,41.33
2023-10-31T03:40:01.254Z,29.67
2023-10-31T03:41:05.649Z,18.37
2023-10-31T03:42:08.577Z,23.06
2023-10-31T03:43:11.365Z,22.47
2023-10-31T03:44:14.265Z,21.75
2023-10-31T03:45:17.037Z,24.40
2023-10-31T03:46:19.964Z,26.19
2023-10-31T03:47:26.746Z,26.19
2023-10-31T03:48:29.571Z,21.37
2023-10-31T03:49:32.413Z,24.87
2023-10-31T03:50:35.307Z,19.44
2023-10-31T03:51:40.384Z,21.56
2023-10-31T03:52:46.304Z,22.62
2023-10-31T03:53:47.566Z,21.25
2023-10-31T03:54:50.410Z,20.81
2023-10-31T03:55:53.215Z,3.06
2023-10-31T03:56:56.079Z,20.50
2023-10-31T03:59:03.400Z,18.69
2023-10-31T03:59:36.061Z,20.31
2023-10-31T04:00:06.648Z,18.62
2023-10-31T04:01:09.480Z,21.00
2023-10-31T04:02:12.266Z,19.44
2023-10-31T04:03:15.171Z,18.37
2023-10-31T04:04:18.143Z,21.00
2023-10-31T04:05:22.450Z,18.12
2023-10-31T04:06:25.364Z,20.19
2023-10-31T04:07:28.163Z,19.75
2023-10-31T04:08:33.314Z,20.37
2023-10-31T04:09:35.378Z,20.12
2023-10-31T04:10:38.266Z,21.81
2023-10-31T04:11:41.138Z,21.69
2023-10-31T04:12:43.943Z,18.25
2023-10-31T04:13:48.261Z,21.00
2023-10-31T04:14:51.047Z,21.12
2023-10-31T04:15:53.867Z,19.19
2023-10-31T04:16:58.741Z,18.87
2023-10-31T04:18:01.655Z,20.69
2023-10-31T04:19:04.625Z,20.94
2023-10-31T04:20:07.980Z,18.31
2023-10-31T04:21:10.832Z,21.31
2023-10-31T04:22:13.673Z,21.75
2023-10-31T04:23:18.467Z,19.50
2023-10-31T04:24:20.865Z,21.37
2023-10-31T04:25:23.696Z,20.62
2023-10-31T04:26:26.558Z,21.06
2023-10-31T04:27:29.420Z,20.06
2023-10-31T04:28:32.310Z,20.75
2023-10-31T04:29:35.145Z,19.19
2023-10-31T04:30:38.066Z,20.88
2023-10-31T04:31:44.282Z,21.87
2023-10-31T04:32:46.807Z,21.06
2023-10-31T04:33:49.639Z,18.12
2023-10-31T04:34:52.560Z,22.56
2023-10-31T04:35:55.446Z,21.31
2023-10-31T04:36:59.328Z,20.56
2023-10-31T04:38:02.260Z,20.62
2023-10-31T04:39:05.136Z,18.50
2023-10-31T04:40:08.349Z,22.13
2023-10-31T04:41:11.283Z,20.50
2023-10-31T04:42:14.228Z,21.00
2023-10-31T04:43:17.157Z,21.87
2023-10-31T04:44:20.024Z,21.12
2023-10-31T04:45:22.795Z,21.25
2023-10-31T04:46:30.163Z,21.50
2023-10-31T04:47:33.218Z,17.73
2023-10-31T04:48:36.120Z,20.44
2023-10-31T04:49:41.267Z,18.31
2023-10-31T04:50:43.408Z,21.37
2023-10-31T04:51:46.260Z,20.81
2023-10-31T04:52:49.064Z,20.73
2023-10-31T04:53:51.959Z,18.81
2023-10-31T04:54:54.767Z,19.80
2023-10-31T04:55:57.638Z,21.31
2023-10-31T04:57:00.552Z,21.56
2023-10-31T04:58:05.094Z,22.00
2023-10-31T04:59:09.649Z,20.69
2023-10-31T05:00:15.913Z,18.62
2023-10-31T05:01:18.696Z,21.12
2023-10-31T05:02:24.435Z,20.19
2023-10-31T05:03:28.525Z,23.07
2023-10-31T05:04:31.489Z,24.40
2023-10-31T05:05:34.431Z,23.31
2023-10-31T05:06:38.564Z,23.19
2023-10-31T05:07:41.468Z,22.87
2023-10-31T05:08:46.851Z,25.06
2023-10-31T05:09:48.613Z,25.00
2023-10-31T05:10:51.533Z,25.69
2023-10-31T05:11:54.330Z,22.56
2023-10-31T05:12:57.174Z,23.62
2023-10-31T05:14:00.143Z,24.63
2023-10-31T05:15:02.970Z,25.25
2023-10-31T05:16:09.040Z,23.12
2023-10-31T05:17:11.962Z,26.62
2023-10-31T05:18:14.890Z,26.44
2023-10-31T05:19:38.045Z,24.63
2023-10-31T05:20:47.266Z,21.56
2023-10-31T05:22:02.985Z,22.94
2023-10-31T05:22:57.938Z,24.63
2023-10-31T05:24:02.819Z,23.62
2023-10-31T05:25:05.902Z,22.69
2023-10-31T05:26:08.805Z,24.00
2023-10-31T05:27:11.582Z,24.25
2023-10-31T05:28:14.386Z,21.67
2023-10-31T05:29:17.295Z,21.75
2023-10-31T05:30:21.923Z,22.00
2023-10-31T05:31:25.113Z,21.87
2023-10-31T05:32:29.627Z,23.33
2023-10-31T05:33:32.494Z,24.12
2023-10-31T05:34:35.562Z,22.69
2023-10-31T05:35:41.288Z,21.06
2023-10-31T05:36:44.339Z,23.19
2023-10-31T05:37:49.818Z,22.50
2023-10-31T05:38:54.481Z,23.87
2023-10-31T05:39:57.296Z,22.75
2023-10-31T05:41:00.196Z,23.62
2023-10-31T05:42:03.002Z,21.75
2023-10-31T05:43:05.831Z,20.44
2023-10-31T05:44:11.097Z,20.69
2023-10-31T05:45:13.866Z,22.13
2023-10-31T05:46:16.849Z,21.75
2023-10-31T05:47:19.816Z,22.75
2023-10-31T05:48:22.572Z,21.37
2023-10-31T05:49:25.498Z,23.06
2023-10-31T05:50:28.382Z,21.62
2023-10-31T05:51:31.187Z,22.31
2023-10-31T05:52:34.003Z,21.00
2023-10-31T05:53:36.800Z,21.37
2023-10-31T05:54:39.616Z,22.06
2023-10-31T05:55:42.520Z,19.31
2023-10-31T05:56:46.826Z,20.00
2023-10-31T05:57:49.654Z,19.50
2023-10-31T05:58:52.526Z,20.25
2023-10-31T05:59:57.018Z,20.56
2023-10-31T06:00:59.926Z,21.31
2023-10-31T06:02:02.990Z,22.50
2023-10-31T06:03:06.977Z,19.87
2023-10-31T06:04:09.773Z,21.75
2023-10-31T06:05:12.792Z,21.62
2023-10-31T06:06:15.659Z,21.25
2023-10-31T06:07:18.474Z,20.75
2023-10-31T06:08:21.323Z,22.31
2023-10-31T06:09:24.107Z,19.75
2023-10-31T06:10:26.969Z,21.31
2023-10-31T06:11:29.785Z,20.25
2023-10-31T06:12:33.811Z,17.44
2023-10-31T06:13:36.613Z,20.25
2023-10-31T06:14:39.410Z,20.25
2023-10-31T06:15:42.231Z,20.69
2023-10-31T06:16:45.346Z,22.53
2023-10-31T06:17:48.402Z,21.06
2023-10-31T06:18:53.013Z,21.93
2023-10-31T06:19:55.869Z,20.56
2023-10-31T06:21:00.760Z,24.53
2023-10-31T06:22:03.228Z,25.37
2023-10-31T06:23:06.314Z,40.44
2023-10-31T06:24:10.550Z,23.06
2023-10-31T06:25:13.457Z,21.25
2023-10-31T06:26:16.389Z,20.25
2023-10-31T06:27:19.237Z,21.69
2023-10-31T06:28:23.102Z,21.19
2023-10-31T06:29:43.343Z,22.19
2023-10-31T06:30:30.655Z,21.81
2023-10-31T06:31:41.910Z,21.06
2023-10-31T06:32:39.718Z,21.31
2023-10-31T06:33:42.683Z,23.12
2023-10-31T06:34:45.619Z,30.94
2023-10-31T06:35:50.162Z,21.53
2023-10-31T06:36:53.034Z,19.37
2023-10-31T06:37:58.190Z,22.37
2023-10-31T06:39:02.732Z,19.31
2023-10-31T06:40:06.037Z,16.19
2023-10-31T06:41:08.943Z,20.94
2023-10-31T06:42:11.837Z,21.75
2023-10-31T06:43:15.862Z,21.07
2023-10-31T06:44:18.771Z,21.47
2023-10-31T06:45:21.694Z,21.87
2023-10-31T06:46:24.610Z,20.37
2023-10-31T06:47:29.014Z,19.37
2023-10-31T06:48:31.965Z,20.50
2023-10-31T06:49:34.742Z,21.06
2023-10-31T06:50:37.614Z,20.37
2023-10-31T06:51:40.486Z,19.87
2023-10-31T06:52:43.341Z,19.44
2023-10-31T06:53:46.151Z,16.75
2023-10-31T06:54:48.950Z,17.25
2023-10-31T06:55:52.578Z,19.56
2023-10-31T06:56:55.547Z,18.69
2023-10-31T06:58:00.863Z,18.27
2023-10-31T06:59:04.386Z,18.69
2023-10-31T07:00:07.994Z,18.19
2023-10-31T07:01:10.877Z,18.62
2023-10-31T07:02:18.093Z,18.31
2023-10-31T07:03:24.075Z,18.19
2023-10-31T07:04:28.565Z,16.69
2023-10-31T07:05:31.856Z,14.75
2023-10-31T07:06:36.446Z,14.69
2023-10-31T07:07:39.273Z,15.00
2023-10-31T07:08:42.081Z,17.69
2023-10-31T07:09:44.911Z,17.12
2023-10-31T07:10:47.772Z,15.75
2023-10-31T07:11:50.629Z,14.75
2023-10-31T07:12:59.894Z,16.50
2023-10-31T07:13:59.627Z,14.81
2023-10-31T07:15:02.467Z,16.00
2023-10-31T07:16:05.797Z,17.00
2023-10-31T07:17:08.629Z,17.06
2023-10-31T07:18:11.535Z,10.69
2023-10-31T07:19:14.329Z,9.63
2023-10-31T07:20:17.283Z,13.62
2023-10-31T07:21:21.740Z,13.62
2023-10-31T07:22:24.555Z,12.25
2023-10-31T07:23:29.052Z,14.00
2023-10-31T07:24:33.798Z,13.50
2023-10-31T07:25:38.892Z,13.31
2023-10-31T07:26:40.763Z,13.69
2023-10-31T07:27:43.516Z,14.00
2023-10-31T07:28:49.394Z,11.56
2023-10-31T07:29:52.229Z,12.75
2023-10-31T07:30:55.099Z,11.38
2023-10-31T07:31:59.783Z,13.31
2023-10-31T07:33:02.705Z,8.38
2023-10-31T07:34:08.287Z,14.06
2023-10-31T07:35:11.197Z,12.06
2023-10-31T07:36:14.696Z,12.81
2023-10-31T07:37:18.612Z,14.00
2023-10-31T07:38:21.432Z,12.44
2023-10-31T07:39:26.667Z,12.56
2023-10-31T07:40:29.553Z,12.06
2023-10-31T07:41:32.404Z,12.63
2023-10-31T07:42:35.263Z,10.50
2023-10-31T07:43:39.054Z,12.25
2023-10-31T07:44:42.073Z,11.69
2023-10-31T07:45:44.896Z,10.56
2023-10-31T07:46:50.479Z,12.75
2023-10-31T07:47:53.286Z,11.25
2023-10-31T07:48:57.657Z,11.69
2023-10-31T07:50:00.583Z,10.38
2023-10-31T07:51:03.612Z,12.94
2023-10-31T07:52:06.614Z,10.13
2023-10-31T07:53:09.431Z,11.69
2023-10-31T07:54:12.301Z,12.50
2023-10-31T07:55:16.833Z,11.56
2023-10-31T07:56:20.032Z,8.44
2023-10-31T07:57:22.921Z,12.50
2023-10-31T07:58:25.726Z,9.69
2023-10-31T07:59:28.614Z,13.44
2023-10-31T08:00:31.509Z,11.50
2023-10-31T08:01:35.839Z,12.63
2023-10-31T08:02:38.723Z,12.06
2023-10-31T08:03:43.354Z,10.13
2023-10-31T08:04:47.477Z,10.13
2023-10-31T08:05:51.760Z,12.69
2023-10-31T08:06:54.709Z,11.06
2023-10-31T08:08:00.643Z,5.81
2023-10-31T08:09:02.024Z,10.38
2023-10-31T08:10:06.692Z,11.25
2023-10-31T08:11:11.949Z,11.69
2023-10-31T08:12:17.779Z,10.13
2023-10-31T08:13:22.107Z,10.19
2023-10-31T08:14:26.676Z,10.75
2023-10-31T08:15:29.306Z,8.06
2023-10-31T08:16:32.328Z,9.44
2023-10-31T08:17:35.355Z,10.19
2023-10-31T08:18:38.257Z,9.13
2023-10-31T08:19:43.941Z,9.63
2023-10-31T08:20:46.808Z,6.06
2023-10-31T08:21:49.600Z,7.56
2023-10-31T08:22:52.436Z,10.00
2023-10-31T08:23:57.007Z,8.63
2023-10-31T08:24:59.833Z,6.25
2023-10-31T08:26:05.108Z,9.13
2023-10-31T08:27:08.785Z,9.00
2023-10-31T08:28:11.640Z,6.12
2023-10-31T08:29:15.687Z,8.13
2023-10-31T08:30:20.002Z,10.56
2023-10-31T08:31:22.894Z,10.81
2023-10-31T08:32:25.918Z,7.12
2023-10-31T08:33:28.853Z,7.44
2023-10-31T08:34:31.719Z,8.00
2023-10-31T08:35:34.534Z,11.44
2023-10-31T08:36:37.432Z,12.37
2023-10-31T08:37:42.190Z,10.00
2023-10-31T08:38:44.730Z,10.56
2023-10-31T08:39:47.545Z,7.94
2023-10-31T08:40:50.552Z,11.94
2023-10-31T08:41:54.227Z,11.81
2023-10-31T08:42:57.139Z,12.00
2023-10-31T08:43:59.964Z,12.13
2023-10-31T08:45:02.838Z,10.50
2023-10-31T08:46:06.022Z,10.88
2023-10-31T08:47:08.807Z,8.69
2023-10-31T08:48:11.652Z,9.88
2023-10-31T08:49:15.168Z,7.00
2023-10-31T08:50:19.737Z,11.00
2023-10-31T08:51:22.592Z,9.88
2023-10-31T08:52:25.402Z,9.00
2023-10-31T08:53:28.276Z,8.69
2023-10-31T08:54:31.144Z,9.81
2023-10-31T08:55:33.951Z,8.88
2023-10-31T08:56:36.831Z,8.94
2023-10-31T08:57:39.597Z,9.50
2023-10-31T08:58:43.995Z,8.25
2023-10-31T08:59:46.814Z,7.56
2023-10-31T09:00:51.645Z,6.50
2023-10-31T09:01:55.812Z,7.62
2023-10-31T09:02:58.751Z,8.38
2023-10-31T09:04:01.658Z,8.81
2023-10-31T09:05:05.756Z,10.56
2023-10-31T09:06:10.270Z,8.00
2023-10-31T09:07:13.070Z,7.81
2023-10-31T09:08:15.878Z,8.63
2023-10-31T09:09:18.750Z,7.94
2023-10-31T09:10:21.654Z,9.13
2023-10-31T09:11:24.592Z,6.50
2023-10-31T09:12:28.120Z,7.75
2023-10-31T09:13:32.873Z,6.87
2023-10-31T09:14:35.709Z,8.19
2023-10-31T09:15:41.781Z,8.50
2023-10-31T09:16:44.664Z,8.25
2023-10-31T09:17:50.898Z,6.75
2023-10-31T09:18:51.836Z,9.50
2023-10-31T09:19:55.832Z,9.31
2023-10-31T09:20:58.698Z,9.19
2023-10-31T09:22:01.563Z,8.56
2023-10-31T09:23:04.397Z,8.13
2023-10-31T09:24:09.152Z,7.75
2023-10-31T09:25:12.217Z,5.50
2023-10-31T09:26:15.397Z,9.00
2023-10-31T09:27:19.153Z,6.00
2023-10-31T09:28:22.008Z,7.62
2023-10-31T09:29:29.708Z,6.56
2023-10-31T09:30:30.796Z,5.56
2023-10-31T09:31:38.624Z,8.81
2023-10-31T09:32:38.197Z,5.50
2023-10-31T09:33:41.197Z,7.50
2023-10-31T09:34:44.061Z,7.06
2023-10-31T09:35:51.580Z,3.50
2023-10-31T09:36:56.159Z,8.31
2023-10-31T09:37:59.128Z,8.44
2023-10-31T09:39:04.897Z,8.00
2023-10-31T09:40:06.932Z,7.81
2023-10-31T09:41:11.683Z,7.12
2023-10-31T09:42:14.781Z,4.56
2023-10-31T09:43:17.631Z,6.12
2023-10-31T09:44:20.551Z,5.37
2023-10-31T09:45:23.452Z,7.00
2023-10-31T09:46:28.575Z,7.06
2023-10-31T09:47:31.845Z,1.56
2023-10-31T09:48:35.225Z,7.12
2023-10-31T09:49:38.583Z,7.06
2023-10-31T09:50:42.455Z,5.94
2023-10-31T09:51:48.256Z,5.87
2023-10-31T09:52:55.155Z,6.25
2023-10-31T09:53:59.326Z,6.19
2023-10-31T09:55:02.602Z,6.62
2023-10-31T09:56:07.429Z,8.25
2023-10-31T09:57:11.990Z,6.62
2023-10-31T09:58:14.829Z,5.06
2023-10-31T09:59:17.784Z,4.87
2023-10-31T10:00:22.397Z,5.06
2023-10-31T10:01:26.405Z,5.56
2023-10-31T10:02:29.465Z,6.81
2023-10-31T10:03:32.842Z,6.06
2023-10-31T10:04:35.920Z,6.44
2023-10-31T10:05:40.227Z,4.62
2023-10-31T10:07:02.279Z,5.69
2023-10-31T10:08:06.642Z,6.06
2023-10-31T10:09:09.385Z,6.06
2023-10-31T10:10:15.008Z,5.31
2023-10-31T10:11:18.037Z,5.75
2023-10-31T10:12:25.150Z,4.31
2023-10-31T10:13:29.294Z,5.62
2023-10-31T10:14:33.373Z,6.19
2023-10-31T10:15:49.471Z,1.75
2023-10-31T10:16:53.356Z,5.12
2023-10-31T10:17:59.213Z,5.75
2023-10-31T10:19:16.388Z,5.69
2023-10-31T10:20:21.686Z,5.12
2023-10-31T10:21:24.091Z,4.25
2023-10-31T10:22:28.399Z,6.31
2023-10-31T10:23:34.800Z,7.69
2023-10-31T10:24:36.881Z,6.00
2023-10-31T10:25:43.453Z,6.87
2023-10-31T10:26:44.633Z,6.31
2023-10-31T10:27:47.496Z,5.31
2023-10-31T10:28:50.241Z,5.75
2023-10-31T10:29:54.624Z,6.25
2023-10-31T10:30:57.614Z,5.44
2023-10-31T10:32:00.500Z,4.94
2023-10-31T10:33:03.371Z,3.81
2023-10-31T10:34:06.387Z,7.00
2023-10-31T10:35:11.324Z,5.75
2023-10-31T10:36:14.933Z,6.25
2023-10-31T10:37:19.507Z,4.56
2023-10-31T10:38:23.285Z,5.19
2023-10-31T10:39:26.081Z,6.62
2023-10-31T10:40:28.941Z,6.00
2023-10-31T10:41:36.015Z,5.87
2023-10-31T10:42:41.400Z,5.25
2023-10-31T10:43:44.335Z,6.56
2023-10-31T10:44:53.853Z,5.50
2023-10-31T10:45:59.939Z,1.00
2023-10-31T10:47:06.364Z,5.50
2023-10-31T10:48:13.432Z,5.81
2023-10-31T10:49:15.891Z,6.12
2023-10-31T10:50:20.186Z,4.19
2023-10-31T10:51:24.545Z,4.31
2023-10-31T10:52:36.361Z,4.44
2023-10-31T10:53:52.706Z,6.62
2023-10-31T10:54:57.154Z,6.00
2023-10-31T10:56:04.252Z,6.19
2023-10-31T10:57:17.545Z,4.94
2023-10-31T10:58:21.839Z,6.12
2023-10-31T10:59:27.295Z,6.31
2023-10-31T11:00:31.948Z,5.00
2023-10-31T11:01:35.928Z,3.81
2023-10-31T11:02:40.232Z,4.81
2023-10-31T11:03:43.301Z,5.94
2023-10-31T11:04:46.136Z,5.94
2023-10-31T11:05:49.083Z,5.19
2023-10-31T11:06:53.345Z,4.69
2023-10-31T11:07:58.740Z,5.94
2023-10-31T11:09:04.173Z,6.06
2023-10-31T11:10:07.374Z,5.44
2023-10-31T11:11:10.760Z,6.62
2023-10-31T11:12:16.043Z,6.12
2023-10-31T11:13:18.983Z,5.81
2023-10-31T11:14:21.871Z,5.50
2023-10-31T11:15:25.202Z,5.00
2023-10-31T11:16:29.659Z,6.81
2023-10-31T11:17:34.416Z,7.81
2023-10-31T11:18:37.395Z,7.00
2023-10-31T11:19:43.539Z,7.19
2023-10-31T11:20:45.103Z,5.56
2023-10-31T11:21:58.660Z,7.25
2023-10-31T11:23:02.863Z,5.31
2023-10-31T11:24:07.157Z,4.19
2023-10-31T11:25:16.646Z,5.12
2023-10-31T11:26:18.305Z,5.37
2023-10-31T11:27:21.152Z,4.37
2023-10-31T11:28:23.960Z,5.12
2023-10-31T11:29:33.779Z,5.94
2023-10-31T11:30:33.098Z,4.94
2023-10-31T11:31:37.388Z,5.25
2023-10-31T11:32:42.642Z,4.12
2023-10-31T11:33:45.510Z,4.94
2023-10-31T11:34:48.314Z,6.00
2023-10-31T11:35:52.610Z,5.37
2023-10-31T11:36:57.007Z,5.12
2023-10-31T11:38:03.592Z,4.25
2023-10-31T11:39:13.603Z,3.37
2023-10-31T11:40:22.929Z,5.06
2023-10-31T11:41:25.767Z,5.62
2023-10-31T11:42:29.253Z,4.81
2023-10-31T11:43:37.505Z,5.19
2023-10-31T11:44:41.814Z,4.81
2023-10-31T11:45:45.952Z,4.87
2023-10-31T11:46:51.011Z,5.00
2023-10-31T11:47:53.794Z,4.81
2023-10-31T11:48:57.384Z,4.75
2023-10-31T11:50:00.630Z,10.06
2023-10-31T11:51:03.662Z,16.62
2023-10-31T11:52:16.882Z,9.31
2023-10-31T11:53:19.856Z,6.31
2023-10-31T11:54:22.699Z,5.37
2023-10-31T11:55:25.852Z,5.75
2023-10-31T11:56:31.561Z,5.12
2023-10-31T11:57:34.426Z,5.12
2023-10-31T11:58:37.274Z,6.69
2023-10-31T11:59:42.962Z,3.06
2023-10-31T12:00:46.458Z,5.94
2023-10-31T12:01:49.269Z,6.19
2023-10-31T12:02:59.739Z,6.19
2023-10-31T12:04:05.194Z,6.19
2023-10-31T12:05:10.588Z,5.81
2023-10-31T12:06:14.884Z,6.50
2023-10-31T12:07:19.167Z,4.31
2023-10-31T12:08:41.298Z,3.81
2023-10-31T12:09:50.068Z,4.56
2023-10-31T12:10:53.264Z,5.81
2023-10-31T12:11:56.050Z,5.00
2023-10-31T12:12:59.491Z,6.06
2023-10-31T12:14:05.660Z,5.94
2023-10-31T12:15:09.376Z,5.56
2023-10-31T12:16:14.110Z,2.19
2023-10-31T12:17:17.034Z,3.81
2023-10-31T12:18:23.712Z,4.31
2023-10-31T12:19:28.219Z,4.56
2023-10-31T12:20:31.479Z,5.37
2023-10-31T12:21:43.564Z,5.25
2023-10-31T12:22:46.336Z,5.62
2023-10-31T12:23:49.244Z,4.19
2023-10-31T12:24:52.037Z,6.81
2023-10-31T12:25:55.227Z,5.94
2023-10-31T12:26:59.579Z,6.25
2023-10-31T12:28:02.503Z,4.81
2023-10-31T12:29:12.903Z,5.31
2023-10-31T12:30:16.813Z,4.62
2023-10-31T12:31:19.676Z,6.50
2023-10-31T12:32:22.568Z,6.44
2023-10-31T12:33:27.865Z,6.37
2023-10-31T12:34:30.658Z,8.88
2023-10-31T12:35:33.643Z,10.38
2023-10-31T12:36:38.811Z,10.56
2023-10-31T12:37:41.610Z,9.69
2023-10-31T12:38:47.660Z,7.56
2023-10-31T12:39:50.534Z,4.56
2023-10-31T12:40:54.094Z,9.00
2023-10-31T12:41:57.358Z,8.56
2023-10-31T12:43:00.529Z,6.19
2023-10-31T12:44:03.717Z,6.00
2023-10-31T12:45:06.834Z,5.44
2023-10-31T12:46:27.745Z,4.37
2023-10-31T12:47:35.828Z,5.62
2023-10-31T12:48:37.617Z,6.56
2023-10-31T12:49:40.444Z,7.56
2023-10-31T12:50:48.424Z,8.13
2023-10-31T12:52:01.142Z,8.31
2023-10-31T12:53:04.164Z,6.44
2023-10-31T12:54:07.074Z,7.56
2023-10-31T12:55:17.489Z,7.12
2023-10-31T12:56:37.379Z,5.75
2023-10-31T12:57:40.248Z,5.69
2023-10-31T12:58:46.887Z,6.56
2023-10-31T12:59:49.792Z,6.94
2023-10-31T13:00:52.656Z,5.94
2023-10-31T13:01:55.567Z,6.75
2023-10-31T13:03:08.254Z,5.75
2023-10-31T13:04:11.221Z,6.94
2023-10-31T13:05:18.389Z,6.87
2023-10-31T13:06:21.235Z,7.06
2023-10-31T13:07:30.089Z,8.13
2023-10-31T13:08:34.426Z,9.19
2023-10-31T13:09:38.208Z,6.00
2023-10-31T13:10:41.148Z,6.56
2023-10-31T13:11:43.930Z,6.50
2023-10-31T13:12:47.520Z,6.12
2023-10-31T13:13:54.209Z,6.75
2023-10-31T13:14:57.019Z,9.06
2023-10-31T13:15:59.872Z,8.94
2023-10-31T13:17:02.834Z,10.88
2023-10-31T13:18:05.816Z,9.94
2023-10-31T13:19:08.829Z,9.25
2023-10-31T13:20:12.896Z,7.75
2023-10-31T13:21:15.710Z,6.12
2023-10-31T13:22:18.500Z,6.62
2023-10-31T13:23:21.469Z,6.87
2023-10-31T13:24:24.424Z,5.56
2023-10-31T13:25:27.217Z,8.19
2023-10-31T13:26:31.799Z,8.38
2023-10-31T13:27:34.971Z,10.31
2023-10-31T13:28:37.872Z,10.56
2023-10-31T13:29:40.668Z,12.44
2023-10-31T13:30:43.527Z,11.00
2023-10-31T13:31:46.405Z,9.31
2023-10-31T13:32:49.291Z,10.94
2023-10-31T13:33:52.150Z,12.63
2023-10-31T13:34:55.129Z,7.50
2023-10-31T13:35:59.689Z,8.19
2023-10-31T13:37:02.462Z,8.56
2023-10-31T13:38:05.300Z,6.81
2023-10-31T13:39:08.105Z,7.44
2023-10-31T13:40:11.163Z,6.37
2023-10-31T13:41:13.971Z,8.31
2023-10-31T13:42:16.877Z,1.25
2023-10-31T13:43:19.674Z,7.44
2023-10-31T13:44:22.537Z,6.81
2023-10-31T13:45:25.330Z,5.00
2023-10-31T13:46:28.226Z,7.25
2023-10-31T13:47:31.109Z,7.31
2023-10-31T13:48:34.988Z,6.56
2023-10-31T13:49:37.799Z,6.06
2023-10-31T13:50:40.785Z,4.37
2023-10-31T13:51:43.611Z,9.50
2023-10-31T13:52:46.505Z,9.88